sensor_id;sensor_type;location;lat;lon;timestamp;P1;durP1;ratioP1;P2;durP2;ratioP2
17173;SDS011;8702;48.130;-1.696;2022-10-16T00:00:46;5.30;;;1.60;;
17173;SDS011;8702;48.130;-1.696;2022-10-16T00:03:13;4.97;;;1.60;;
17173;SDS011;8702;48.130;-1.696;2022-10-16T00:05:40;3.90;;;1.60;;
17173;SDS011;8702;48.130;-1.696;2022-10-16T00:08:09;4.75;;;1.65;;
17173;SDS011;8702;48.130;-1.696;2022-10-16T00:10:38;4.68;;;2.00;;
17173;SDS011;8702;48.130;-1.696;2022-10-16T00:13:06;6.05;;;2.00;;
17173;SDS011;8702;48.130;-1.696;2022-10-16T00:15:34;4.85;;;1.75;;
17173;SDS011;8702;48.130;-1.696;2022-10-16T00:18:02;4.13;;;2.17;;
17173;SDS011;8702;48.130;-1.696;2022-10-16T00:20:30;4.72;;;1.92;;
17173;SDS011;8702;48.130;-1.696;2022-10-16T00:22:59;6.25;;;2.50;;
17173;SDS011;8702;48.130;-1.696;2022-10-16T00:25:26;5.18;;;2.55;;
17173;SDS011;8702;48.130;-1.696;2022-10-16T00:27:54;5.68;;;2.50;;
17173;SDS011;8702;48.130;-1.696;2022-10-16T00:30:21;5.25;;;2.90;;
17173;SDS011;8702;48.130;-1.696;2022-10-16T00:32:48;4.93;;;2.67;;
17173;SDS011;8702;48.130;-1.696;2022-10-16T00:35:15;5.37;;;2.60;;
17173;SDS011;8702;48.130;-1.696;2022-10-16T00:37:42;6.07;;;2.95;;
17173;SDS011;8702;48.130;-1.696;2022-10-16T00:40:10;5.78;;;3.00;;
17173;SDS011;8702;48.130;-1.696;2022-10-16T00:42:37;4.63;;;2.95;;
17173;SDS011;8702;48.130;-1.696;2022-10-16T00:45:06;8.60;;;3.20;;
17173;SDS011;8702;48.130;-1.696;2022-10-16T00:47:36;6.57;;;3.50;;
17173;SDS011;8702;48.130;-1.696;2022-10-16T00:50:06;6.47;;;3.53;;
17173;SDS011;8702;48.130;-1.696;2022-10-16T00:52:35;6.73;;;3.57;;
17173;SDS011;8702;48.130;-1.696;2022-10-16T00:55:05;8.50;;;3.90;;
17173;SDS011;8702;48.130;-1.696;2022-10-16T00:57:34;10.20;;;4.15;;
17173;SDS011;8702;48.130;-1.696;2022-10-16T01:00:06;8.57;;;3.47;;
17173;SDS011;8702;48.130;-1.696;2022-10-16T01:02:38;8.52;;;4.35;;
17173;SDS011;8702;48.130;-1.696;2022-10-16T01:05:05;6.65;;;4.30;;
17173;SDS011;8702;48.130;-1.696;2022-10-16T01:07:36;7.40;;;4.07;;
17173;SDS011;8702;48.130;-1.696;2022-10-16T01:10:13;6.88;;;3.72;;
17173;SDS011;8702;48.130;-1.696;2022-10-16T01:12:50;8.15;;;4.20;;
17173;SDS011;8702;48.130;-1.696;2022-10-16T01:15:25;7.13;;;4.18;;
17173;SDS011;8702;48.130;-1.696;2022-10-16T01:17:57;6.20;;;4.13;;
17173;SDS011;8702;48.130;-1.696;2022-10-16T01:20:27;8.25;;;4.10;;
17173;SDS011;8702;48.130;-1.696;2022-10-16T01:23:07;7.00;;;4.10;;
17173;SDS011;8702;48.130;-1.696;2022-10-16T01:25:52;6.43;;;4.13;;
17173;SDS011;8702;48.130;-1.696;2022-10-16T01:28:43;7.20;;;4.03;;
17173;SDS011;8702;48.130;-1.696;2022-10-16T01:31:17;5.90;;;3.65;;
17173;SDS011;8702;48.130;-1.696;2022-10-16T01:33:48;6.00;;;4.00;;
17173;SDS011;8702;48.130;-1.696;2022-10-16T01:36:21;7.20;;;4.00;;
17173;SDS011;8702;48.130;-1.696;2022-10-16T01:38:52;8.32;;;4.00;;
17173;SDS011;8702;48.130;-1.696;2022-10-16T01:41:24;8.57;;;3.83;;
17173;SDS011;8702;48.130;-1.696;2022-10-16T01:44:01;7.18;;;3.90;;
17173;SDS011;8702;48.130;-1.696;2022-10-16T01:46:30;8.10;;;4.07;;
17173;SDS011;8702;48.130;-1.696;2022-10-16T01:49:00;9.90;;;4.43;;
17173;SDS011;8702;48.130;-1.696;2022-10-16T01:51:29;9.90;;;4.13;;
17173;SDS011;8702;48.130;-1.696;2022-10-16T01:53:56;7.33;;;3.80;;
17173;SDS011;8702;48.130;-1.696;2022-10-16T01:56:27;8.48;;;4.20;;
17173;SDS011;8702;48.130;-1.696;2022-10-16T01:58:57;9.17;;;4.13;;
17173;SDS011;8702;48.130;-1.696;2022-10-16T02:01:29;8.35;;;4.15;;
17173;SDS011;8702;48.130;-1.696;2022-10-16T02:03:59;6.87;;;3.90;;
17173;SDS011;8702;48.130;-1.696;2022-10-16T02:06:30;6.95;;;3.97;;
17173;SDS011;8702;48.130;-1.696;2022-10-16T02:08:58;8.43;;;4.05;;
17173;SDS011;8702;48.130;-1.696;2022-10-16T02:11:25;8.07;;;3.90;;
17173;SDS011;8702;48.130;-1.696;2022-10-16T02:13:53;7.80;;;3.83;;
17173;SDS011;8702;48.130;-1.696;2022-10-16T02:16:33;7.82;;;3.92;;
17173;SDS011;8702;48.130;-1.696;2022-10-16T02:19:01;7.95;;;3.75;;
17173;SDS011;8702;48.130;-1.696;2022-10-16T02:21:30;8.77;;;3.65;;
17173;SDS011;8702;48.130;-1.696;2022-10-16T02:24:05;10.23;;;4.07;;
17173;SDS011;8702;48.130;-1.696;2022-10-16T02:26:40;8.52;;;4.00;;
17173;SDS011;8702;48.130;-1.696;2022-10-16T02:29:13;8.13;;;3.70;;
17173;SDS011;8702;48.130;-1.696;2022-10-16T02:31:48;8.80;;;3.80;;
17173;SDS011;8702;48.130;-1.696;2022-10-16T02:34:18;11.27;;;3.97;;
17173;SDS011;8702;48.130;-1.696;2022-10-16T02:36:47;9.77;;;3.67;;
17173;SDS011;8702;48.130;-1.696;2022-10-16T02:39:16;7.30;;;3.38;;
17173;SDS011;8702;48.130;-1.696;2022-10-16T02:41:45;7.95;;;3.60;;
17173;SDS011;8702;48.130;-1.696;2022-10-16T02:44:13;7.95;;;3.85;;
17173;SDS011;8702;48.130;-1.696;2022-10-16T02:46:40;7.35;;;3.42;;
17173;SDS011;8702;48.130;-1.696;2022-10-16T02:49:08;7.75;;;3.83;;
17173;SDS011;8702;48.130;-1.696;2022-10-16T02:51:35;9.07;;;3.70;;
17173;SDS011;8702;48.130;-1.696;2022-10-16T02:54:02;8.27;;;3.38;;
17173;SDS011;8702;48.130;-1.696;2022-10-16T02:56:30;7.10;;;4.10;;
17173;SDS011;8702;48.130;-1.696;2022-10-16T02:58:57;4.95;;;3.17;;
17173;SDS011;8702;48.130;-1.696;2022-10-16T03:01:24;6.30;;;3.53;;
17173;SDS011;8702;48.130;-1.696;2022-10-16T03:03:51;7.40;;;3.30;;
17173;SDS011;8702;48.130;-1.696;2022-10-16T03:06:19;8.40;;;4.00;;
17173;SDS011;8702;48.130;-1.696;2022-10-16T03:08:46;6.28;;;3.60;;
17173;SDS011;8702;48.130;-1.696;2022-10-16T03:11:13;7.13;;;3.80;;
17173;SDS011;8702;48.130;-1.696;2022-10-16T03:13:40;10.35;;;4.35;;
17173;SDS011;8702;48.130;-1.696;2022-10-16T03:16:07;6.80;;;4.20;;
17173;SDS011;8702;48.130;-1.696;2022-10-16T03:18:34;8.38;;;4.38;;
17173;SDS011;8702;48.130;-1.696;2022-10-16T03:21:01;8.80;;;4.38;;
17173;SDS011;8702;48.130;-1.696;2022-10-16T03:23:30;7.35;;;4.10;;
17173;SDS011;8702;48.130;-1.696;2022-10-16T03:25:57;8.23;;;4.18;;
17173;SDS011;8702;48.130;-1.696;2022-10-16T03:28:24;9.07;;;4.50;;
17173;SDS011;8702;48.130;-1.696;2022-10-16T03:30:51;6.85;;;4.07;;
17173;SDS011;8702;48.130;-1.696;2022-10-16T03:33:18;8.15;;;4.85;;
17173;SDS011;8702;48.130;-1.696;2022-10-16T03:35:50;8.30;;;4.45;;
17173;SDS011;8702;48.130;-1.696;2022-10-16T03:38:19;9.32;;;4.82;;
17173;SDS011;8702;48.130;-1.696;2022-10-16T03:40:47;8.07;;;5.05;;
17173;SDS011;8702;48.130;-1.696;2022-10-16T03:43:14;8.77;;;4.78;;
17173;SDS011;8702;48.130;-1.696;2022-10-16T03:45:41;8.53;;;5.07;;
17173;SDS011;8702;48.130;-1.696;2022-10-16T03:48:08;8.27;;;5.03;;
17173;SDS011;8702;48.130;-1.696;2022-10-16T03:50:35;9.00;;;4.80;;
17173;SDS011;8702;48.130;-1.696;2022-10-16T03:53:02;12.35;;;5.50;;
17173;SDS011;8702;48.130;-1.696;2022-10-16T03:55:29;10.80;;;5.25;;
17173;SDS011;8702;48.130;-1.696;2022-10-16T03:57:58;9.20;;;4.70;;
17173;SDS011;8702;48.130;-1.696;2022-10-16T04:00:25;7.68;;;4.88;;
17173;SDS011;8702;48.130;-1.696;2022-10-16T04:02:52;9.50;;;4.85;;
17173;SDS011;8702;48.130;-1.696;2022-10-16T04:05:19;10.27;;;5.20;;
17173;SDS011;8702;48.130;-1.696;2022-10-16T04:07:46;7.75;;;5.10;;
17173;SDS011;8702;48.130;-1.696;2022-10-16T04:10:13;7.72;;;4.95;;
17173;SDS011;8702;48.130;-1.696;2022-10-16T04:12:40;9.27;;;5.20;;
17173;SDS011;8702;48.130;-1.696;2022-10-16T04:15:09;7.43;;;5.03;;
17173;SDS011;8702;48.130;-1.696;2022-10-16T04:17:36;9.53;;;5.27;;
17173;SDS011;8702;48.130;-1.696;2022-10-16T04:20:03;8.52;;;5.00;;
17173;SDS011;8702;48.130;-1.696;2022-10-16T04:22:31;8.60;;;5.18;;
17173;SDS011;8702;48.130;-1.696;2022-10-16T04:24:58;9.75;;;5.53;;
17173;SDS011;8702;48.130;-1.696;2022-10-16T04:27:25;9.85;;;5.40;;
17173;SDS011;8702;48.130;-1.696;2022-10-16T04:29:52;10.43;;;5.28;;
17173;SDS011;8702;48.130;-1.696;2022-10-16T04:32:20;8.02;;;5.30;;
17173;SDS011;8702;48.130;-1.696;2022-10-16T04:34:47;9.13;;;5.20;;
17173;SDS011;8702;48.130;-1.696;2022-10-16T04:37:14;9.98;;;5.75;;
17173;SDS011;8702;48.130;-1.696;2022-10-16T04:39:41;10.00;;;5.60;;
17173;SDS011;8702;48.130;-1.696;2022-10-16T04:42:08;10.75;;;5.72;;
17173;SDS011;8702;48.130;-1.696;2022-10-16T04:44:35;10.40;;;5.78;;
17173;SDS011;8702;48.130;-1.696;2022-10-16T04:47:02;9.83;;;5.23;;
17173;SDS011;8702;48.130;-1.696;2022-10-16T04:49:31;10.25;;;5.35;;
17173;SDS011;8702;48.130;-1.696;2022-10-16T04:51:58;9.55;;;5.95;;
17173;SDS011;8702;48.130;-1.696;2022-10-16T04:54:24;11.82;;;5.32;;
17173;SDS011;8702;48.130;-1.696;2022-10-16T04:56:51;9.35;;;5.82;;
17173;SDS011;8702;48.130;-1.696;2022-10-16T04:59:19;9.60;;;5.40;;
17173;SDS011;8702;48.130;-1.696;2022-10-16T05:01:47;9.60;;;5.50;;
17173;SDS011;8702;48.130;-1.696;2022-10-16T05:04:14;11.65;;;5.80;;
17173;SDS011;8702;48.130;-1.696;2022-10-16T05:06:43;11.57;;;6.00;;
17173;SDS011;8702;48.130;-1.696;2022-10-16T05:09:10;12.75;;;6.07;;
17173;SDS011;8702;48.130;-1.696;2022-10-16T05:11:36;9.40;;;5.90;;
17173;SDS011;8702;48.130;-1.696;2022-10-16T05:14:03;11.33;;;6.20;;
17173;SDS011;8702;48.130;-1.696;2022-10-16T05:16:31;12.25;;;6.15;;
17173;SDS011;8702;48.130;-1.696;2022-10-16T05:18:58;9.00;;;6.60;;
17173;SDS011;8702;48.130;-1.696;2022-10-16T05:21:25;12.70;;;6.78;;
17173;SDS011;8702;48.130;-1.696;2022-10-16T05:23:53;11.43;;;6.40;;
17173;SDS011;8702;48.130;-1.696;2022-10-16T05:26:21;11.40;;;6.57;;
17173;SDS011;8702;48.130;-1.696;2022-10-16T05:28:48;12.40;;;6.63;;
17173;SDS011;8702;48.130;-1.696;2022-10-16T05:31:16;10.67;;;6.80;;
17173;SDS011;8702;48.130;-1.696;2022-10-16T05:33:43;11.10;;;6.90;;
17173;SDS011;8702;48.130;-1.696;2022-10-16T05:36:10;10.75;;;7.03;;
17173;SDS011;8702;48.130;-1.696;2022-10-16T05:38:38;12.25;;;6.63;;
17173;SDS011;8702;48.130;-1.696;2022-10-16T05:41:06;15.63;;;7.30;;
17173;SDS011;8702;48.130;-1.696;2022-10-16T05:43:33;13.38;;;7.07;;
17173;SDS011;8702;48.130;-1.696;2022-10-16T05:46:01;10.95;;;7.13;;
17173;SDS011;8702;48.130;-1.696;2022-10-16T05:48:29;14.90;;;7.80;;
17173;SDS011;8702;48.130;-1.696;2022-10-16T05:50:57;12.50;;;7.65;;
17173;SDS011;8702;48.130;-1.696;2022-10-16T05:53:24;14.50;;;7.43;;
17173;SDS011;8702;48.130;-1.696;2022-10-16T05:55:52;12.18;;;7.72;;
17173;SDS011;8702;48.130;-1.696;2022-10-16T05:58:21;12.02;;;7.60;;
17173;SDS011;8702;48.130;-1.696;2022-10-16T06:00:55;13.10;;;8.20;;
17173;SDS011;8702;48.130;-1.696;2022-10-16T06:03:22;11.52;;;6.88;;
17173;SDS011;8702;48.130;-1.696;2022-10-16T06:05:49;12.30;;;7.28;;
17173;SDS011;8702;48.130;-1.696;2022-10-16T06:08:17;11.55;;;7.63;;
17173;SDS011;8702;48.130;-1.696;2022-10-16T06:10:45;13.55;;;7.93;;
17173;SDS011;8702;48.130;-1.696;2022-10-16T06:13:12;12.18;;;7.45;;
17173;SDS011;8702;48.130;-1.696;2022-10-16T06:15:41;12.27;;;8.68;;
17173;SDS011;8702;48.130;-1.696;2022-10-16T06:18:08;14.30;;;8.98;;
17173;SDS011;8702;48.130;-1.696;2022-10-16T06:20:36;13.70;;;9.20;;
17173;SDS011;8702;48.130;-1.696;2022-10-16T06:23:03;16.33;;;8.50;;
17173;SDS011;8702;48.130;-1.696;2022-10-16T06:25:30;15.40;;;9.02;;
17173;SDS011;8702;48.130;-1.696;2022-10-16T06:27:57;15.05;;;8.93;;
17173;SDS011;8702;48.130;-1.696;2022-10-16T06:30:24;16.08;;;8.93;;
17173;SDS011;8702;48.130;-1.696;2022-10-16T06:32:53;14.83;;;8.80;;
17173;SDS011;8702;48.130;-1.696;2022-10-16T06:35:20;14.32;;;9.30;;
17173;SDS011;8702;48.130;-1.696;2022-10-16T06:37:47;16.33;;;9.43;;
17173;SDS011;8702;48.130;-1.696;2022-10-16T06:40:14;18.58;;;9.25;;
17173;SDS011;8702;48.130;-1.696;2022-10-16T06:42:41;15.35;;;8.98;;
17173;SDS011;8702;48.130;-1.696;2022-10-16T06:45:08;16.80;;;9.73;;
17173;SDS011;8702;48.130;-1.696;2022-10-16T06:47:36;16.23;;;9.27;;
17173;SDS011;8702;48.130;-1.696;2022-10-16T06:50:05;18.48;;;10.60;;
17173;SDS011;8702;48.130;-1.696;2022-10-16T06:52:32;18.05;;;10.27;;
17173;SDS011;8702;48.130;-1.696;2022-10-16T06:55:00;18.75;;;10.15;;
17173;SDS011;8702;48.130;-1.696;2022-10-16T06:57:27;17.92;;;10.07;;
17173;SDS011;8702;48.130;-1.696;2022-10-16T06:59:55;21.50;;;10.20;;
17173;SDS011;8702;48.130;-1.696;2022-10-16T07:02:22;19.45;;;9.45;;
17173;SDS011;8702;48.130;-1.696;2022-10-16T07:04:49;21.25;;;10.80;;
17173;SDS011;8702;48.130;-1.696;2022-10-16T07:07:17;18.45;;;10.38;;
17173;SDS011;8702;48.130;-1.696;2022-10-16T07:09:44;18.85;;;10.35;;
17173;SDS011;8702;48.130;-1.696;2022-10-16T07:12:11;18.10;;;10.13;;
17173;SDS011;8702;48.130;-1.696;2022-10-16T07:14:38;17.10;;;9.23;;
17173;SDS011;8702;48.130;-1.696;2022-10-16T07:17:05;17.83;;;9.53;;
17173;SDS011;8702;48.130;-1.696;2022-10-16T07:19:31;13.23;;;7.97;;
17173;SDS011;8702;48.130;-1.696;2022-10-16T07:21:58;12.80;;;7.50;;
17173;SDS011;8702;48.130;-1.696;2022-10-16T07:24:27;14.50;;;7.38;;
17173;SDS011;8702;48.130;-1.696;2022-10-16T07:26:54;11.65;;;6.05;;
17173;SDS011;8702;48.130;-1.696;2022-10-16T07:29:21;7.07;;;5.28;;
17173;SDS011;8702;48.130;-1.696;2022-10-16T07:31:48;9.88;;;5.93;;
17173;SDS011;8702;48.130;-1.696;2022-10-16T07:34:16;6.95;;;4.90;;
17173;SDS011;8702;48.130;-1.696;2022-10-16T07:36:43;6.25;;;4.90;;
17173;SDS011;8702;48.130;-1.696;2022-10-16T07:39:13;7.65;;;4.38;;
17173;SDS011;8702;48.130;-1.696;2022-10-16T07:41:44;6.57;;;4.30;;
17173;SDS011;8702;48.130;-1.696;2022-10-16T07:44:11;7.50;;;4.03;;
17173;SDS011;8702;48.130;-1.696;2022-10-16T07:46:38;6.07;;;3.40;;
17173;SDS011;8702;48.130;-1.696;2022-10-16T07:49:05;6.30;;;3.53;;
17173;SDS011;8702;48.130;-1.696;2022-10-16T07:51:32;4.40;;;2.80;;
17173;SDS011;8702;48.130;-1.696;2022-10-16T07:53:59;4.13;;;2.80;;
17173;SDS011;8702;48.130;-1.696;2022-10-16T07:56:26;6.03;;;2.45;;
17173;SDS011;8702;48.130;-1.696;2022-10-16T07:58:55;4.90;;;2.30;;
17173;SDS011;8702;48.130;-1.696;2022-10-16T08:01:22;5.07;;;2.22;;
17173;SDS011;8702;48.130;-1.696;2022-10-16T08:03:49;4.80;;;2.15;;
17173;SDS011;8702;48.130;-1.696;2022-10-16T08:06:18;4.13;;;1.90;;
17173;SDS011;8702;48.130;-1.696;2022-10-16T08:08:45;5.30;;;1.85;;
17173;SDS011;8702;48.130;-1.696;2022-10-16T08:11:12;2.97;;;1.40;;
17173;SDS011;8702;48.130;-1.696;2022-10-16T08:13:40;4.13;;;2.00;;
17173;SDS011;8702;48.130;-1.696;2022-10-16T08:16:08;3.70;;;1.50;;
17173;SDS011;8702;48.130;-1.696;2022-10-16T08:18:36;4.90;;;1.65;;
17173;SDS011;8702;48.130;-1.696;2022-10-16T08:21:04;2.38;;;1.60;;
17173;SDS011;8702;48.130;-1.696;2022-10-16T08:23:32;4.78;;;1.52;;
17173;SDS011;8702;48.130;-1.696;2022-10-16T08:26:02;3.03;;;1.20;;
17173;SDS011;8702;48.130;-1.696;2022-10-16T08:28:30;3.53;;;1.40;;
17173;SDS011;8702;48.130;-1.696;2022-10-16T08:31:04;4.15;;;1.38;;
17173;SDS011;8702;48.130;-1.696;2022-10-16T08:33:33;2.92;;;1.40;;
17173;SDS011;8702;48.130;-1.696;2022-10-16T08:36:01;2.80;;;1.40;;
17173;SDS011;8702;48.130;-1.696;2022-10-16T08:38:28;3.55;;;1.60;;
17173;SDS011;8702;48.130;-1.696;2022-10-16T08:40:56;5.13;;;1.40;;
17173;SDS011;8702;48.130;-1.696;2022-10-16T08:43:43;5.05;;;1.63;;
17173;SDS011;8702;48.130;-1.696;2022-10-16T08:46:21;4.53;;;1.60;;
17173;SDS011;8702;48.130;-1.696;2022-10-16T08:48:59;2.83;;;1.30;;
17173;SDS011;8702;48.130;-1.696;2022-10-16T08:51:29;2.85;;;1.30;;
17173;SDS011;8702;48.130;-1.696;2022-10-16T08:53:59;4.32;;;1.50;;
17173;SDS011;8702;48.130;-1.696;2022-10-16T08:56:29;5.75;;;1.40;;
17173;SDS011;8702;48.130;-1.696;2022-10-16T08:58:57;2.42;;;1.05;;
17173;SDS011;8702;48.130;-1.696;2022-10-16T09:01:27;5.63;;;1.50;;
17173;SDS011;8702;48.130;-1.696;2022-10-16T09:04:08;3.10;;;1.08;;
17173;SDS011;8702;48.130;-1.696;2022-10-16T09:07:01;3.60;;;1.20;;
17173;SDS011;8702;48.130;-1.696;2022-10-16T09:09:45;2.20;;;1.20;;
17173;SDS011;8702;48.130;-1.696;2022-10-16T09:12:21;2.17;;;1.13;;
17173;SDS011;8702;48.130;-1.696;2022-10-16T09:14:56;4.72;;;1.33;;
17173;SDS011;8702;48.130;-1.696;2022-10-16T09:17:34;3.13;;;1.02;;
17173;SDS011;8702;48.130;-1.696;2022-10-16T09:20:17;3.05;;;1.05;;
17173;SDS011;8702;48.130;-1.696;2022-10-16T09:22:53;4.18;;;1.20;;
17173;SDS011;8702;48.130;-1.696;2022-10-16T09:25:25;4.15;;;1.38;;
17173;SDS011;8702;48.130;-1.696;2022-10-16T09:27:53;3.47;;;1.20;;
17173;SDS011;8702;48.130;-1.696;2022-10-16T09:30:20;4.20;;;1.30;;
17173;SDS011;8702;48.130;-1.696;2022-10-16T09:32:48;3.60;;;1.30;;
17173;SDS011;8702;48.130;-1.696;2022-10-16T09:35:19;3.78;;;1.27;;
17173;SDS011;8702;48.130;-1.696;2022-10-16T09:37:49;4.30;;;1.60;;
17173;SDS011;8702;48.130;-1.696;2022-10-16T09:40:24;4.18;;;1.45;;
17173;SDS011;8702;48.130;-1.696;2022-10-16T09:42:56;5.07;;;1.30;;
17173;SDS011;8702;48.130;-1.696;2022-10-16T09:45:28;4.82;;;1.30;;
17173;SDS011;8702;48.130;-1.696;2022-10-16T09:47:55;5.35;;;1.13;;
17173;SDS011;8702;48.130;-1.696;2022-10-16T09:50:24;2.78;;;1.20;;
17173;SDS011;8702;48.130;-1.696;2022-10-16T09:53:03;3.60;;;1.20;;
17173;SDS011;8702;48.130;-1.696;2022-10-16T09:55:31;3.03;;;1.15;;
17173;SDS011;8702;48.130;-1.696;2022-10-16T09:57:58;2.75;;;1.15;;
17173;SDS011;8702;48.130;-1.696;2022-10-16T10:00:25;3.20;;;1.10;;
17173;SDS011;8702;48.130;-1.696;2022-10-16T10:02:52;3.13;;;1.05;;
17173;SDS011;8702;48.130;-1.696;2022-10-16T10:05:21;2.80;;;1.15;;
17173;SDS011;8702;48.130;-1.696;2022-10-16T10:07:54;2.70;;;1.10;;
17173;SDS011;8702;48.130;-1.696;2022-10-16T10:10:24;2.78;;;1.10;;
17173;SDS011;8702;48.130;-1.696;2022-10-16T10:12:52;2.80;;;1.13;;
17173;SDS011;8702;48.130;-1.696;2022-10-16T10:15:20;4.57;;;1.33;;
17173;SDS011;8702;48.130;-1.696;2022-10-16T10:17:50;2.17;;;1.08;;
17173;SDS011;8702;48.130;-1.696;2022-10-16T10:20:22;4.80;;;1.10;;
17173;SDS011;8702;48.130;-1.696;2022-10-16T10:22:51;3.38;;;1.00;;
17173;SDS011;8702;48.130;-1.696;2022-10-16T10:25:26;3.58;;;1.30;;
17173;SDS011;8702;48.130;-1.696;2022-10-16T10:28:13;3.83;;;1.30;;
17173;SDS011;8702;48.130;-1.696;2022-10-16T10:30:49;5.32;;;1.40;;
17173;SDS011;8702;48.130;-1.696;2022-10-16T10:33:24;3.50;;;1.50;;
17173;SDS011;8702;48.130;-1.696;2022-10-16T10:35:57;2.63;;;1.00;;
17173;SDS011;8702;48.130;-1.696;2022-10-16T10:38:34;2.45;;;1.05;;
17173;SDS011;8702;48.130;-1.696;2022-10-16T10:41:16;3.20;;;1.20;;
17173;SDS011;8702;48.130;-1.696;2022-10-16T10:43:55;3.22;;;1.25;;
17173;SDS011;8702;48.130;-1.696;2022-10-16T10:46:31;4.22;;;1.38;;
17173;SDS011;8702;48.130;-1.696;2022-10-16T10:49:13;4.18;;;1.20;;
17173;SDS011;8702;48.130;-1.696;2022-10-16T10:51:52;4.20;;;1.50;;
17173;SDS011;8702;48.130;-1.696;2022-10-16T10:54:29;4.90;;;1.33;;
17173;SDS011;8702;48.130;-1.696;2022-10-16T10:57:08;4.50;;;1.25;;
17173;SDS011;8702;48.130;-1.696;2022-10-16T11:02:38;4.72;;;1.50;;
17173;SDS011;8702;48.130;-1.696;2022-10-16T11:08:00;6.85;;;2.40;;
17173;SDS011;8702;48.130;-1.696;2022-10-16T11:10:34;4.93;;;1.40;;
17173;SDS011;8702;48.130;-1.696;2022-10-16T11:13:15;4.40;;;1.40;;
17173;SDS011;8702;48.130;-1.696;2022-10-16T11:15:48;4.03;;;1.30;;
17173;SDS011;8702;48.130;-1.696;2022-10-16T11:18:19;4.20;;;1.38;;
17173;SDS011;8702;48.130;-1.696;2022-10-16T11:20:49;4.13;;;1.38;;
17173;SDS011;8702;48.130;-1.696;2022-10-16T11:23:21;4.70;;;1.48;;
17173;SDS011;8702;48.130;-1.696;2022-10-16T11:25:51;3.80;;;1.40;;
17173;SDS011;8702;48.130;-1.696;2022-10-16T11:28:25;4.55;;;1.58;;
17173;SDS011;8702;48.130;-1.696;2022-10-16T11:31:00;3.28;;;1.23;;
17173;SDS011;8702;48.130;-1.696;2022-10-16T11:33:34;5.05;;;1.50;;
17173;SDS011;8702;48.130;-1.696;2022-10-16T11:36:10;2.95;;;1.30;;
17173;SDS011;8702;48.130;-1.696;2022-10-16T11:38:42;3.63;;;1.70;;
17173;SDS011;8702;48.130;-1.696;2022-10-16T11:41:18;4.35;;;1.90;;
17173;SDS011;8702;48.130;-1.696;2022-10-16T11:43:56;6.10;;;2.50;;
17173;SDS011;8702;48.130;-1.696;2022-10-16T11:46:40;4.63;;;2.58;;
17173;SDS011;8702;48.130;-1.696;2022-10-16T11:49:15;5.68;;;2.75;;
17173;SDS011;8702;48.130;-1.696;2022-10-16T11:51:48;6.63;;;2.83;;
17173;SDS011;8702;48.130;-1.696;2022-10-16T11:54:20;5.68;;;2.25;;
17173;SDS011;8702;48.130;-1.696;2022-10-16T11:56:55;7.10;;;3.00;;
17173;SDS011;8702;48.130;-1.696;2022-10-16T11:59:28;7.30;;;4.05;;
17173;SDS011;8702;48.130;-1.696;2022-10-16T12:02:07;8.98;;;3.42;;
17173;SDS011;8702;48.130;-1.696;2022-10-16T12:04:59;6.38;;;2.63;;
17173;SDS011;8702;48.130;-1.696;2022-10-16T12:07:38;5.35;;;2.10;;
17173;SDS011;8702;48.130;-1.696;2022-10-16T12:10:17;3.85;;;1.83;;
17173;SDS011;8702;48.130;-1.696;2022-10-16T12:12:46;4.10;;;1.67;;
17173;SDS011;8702;48.130;-1.696;2022-10-16T12:15:22;3.92;;;1.60;;
17173;SDS011;8702;48.130;-1.696;2022-10-16T12:17:51;4.32;;;1.63;;
17173;SDS011;8702;48.130;-1.696;2022-10-16T12:20:20;4.57;;;1.60;;
17173;SDS011;8702;48.130;-1.696;2022-10-16T12:22:51;4.82;;;1.80;;
17173;SDS011;8702;48.130;-1.696;2022-10-16T12:25:21;4.87;;;2.07;;
17173;SDS011;8702;48.130;-1.696;2022-10-16T12:27:56;5.22;;;1.90;;
17173;SDS011;8702;48.130;-1.696;2022-10-16T12:30:26;3.80;;;1.60;;
17173;SDS011;8702;48.130;-1.696;2022-10-16T12:32:55;4.53;;;2.17;;
17173;SDS011;8702;48.130;-1.696;2022-10-16T12:35:25;3.78;;;1.75;;
17173;SDS011;8702;48.130;-1.696;2022-10-16T12:37:54;4.00;;;2.00;;
17173;SDS011;8702;48.130;-1.696;2022-10-16T12:40:33;3.63;;;1.80;;
17173;SDS011;8702;48.130;-1.696;2022-10-16T12:43:11;3.30;;;2.05;;
17173;SDS011;8702;48.130;-1.696;2022-10-16T12:45:59;3.57;;;1.93;;
17173;SDS011;8702;48.130;-1.696;2022-10-16T12:48:28;3.30;;;1.70;;
17173;SDS011;8702;48.130;-1.696;2022-10-16T12:50:56;4.50;;;2.22;;
17173;SDS011;8702;48.130;-1.696;2022-10-16T12:53:23;5.47;;;2.35;;
17173;SDS011;8702;48.130;-1.696;2022-10-16T12:55:56;2.80;;;1.70;;
17173;SDS011;8702;48.130;-1.696;2022-10-16T12:58:51;5.63;;;1.80;;
17173;SDS011;8702;48.130;-1.696;2022-10-16T13:01:39;4.57;;;1.80;;
17173;SDS011;8702;48.130;-1.696;2022-10-16T13:04:27;2.92;;;1.40;;
17173;SDS011;8702;48.130;-1.696;2022-10-16T13:07:17;4.05;;;1.73;;
17173;SDS011;8702;48.130;-1.696;2022-10-16T13:10:00;3.28;;;1.60;;
17173;SDS011;8702;48.130;-1.696;2022-10-16T13:12:41;3.63;;;1.70;;
17173;SDS011;8702;48.130;-1.696;2022-10-16T13:15:27;4.13;;;1.67;;
17173;SDS011;8702;48.130;-1.696;2022-10-16T13:18:07;4.53;;;1.63;;
17173;SDS011;8702;48.130;-1.696;2022-10-16T13:20:44;4.72;;;1.58;;
17173;SDS011;8702;48.130;-1.696;2022-10-16T13:23:25;3.80;;;1.88;;
17173;SDS011;8702;48.130;-1.696;2022-10-16T13:26:02;3.78;;;1.60;;
17173;SDS011;8702;48.130;-1.696;2022-10-16T13:28:39;5.15;;;1.80;;
17173;SDS011;8702;48.130;-1.696;2022-10-16T13:31:09;4.25;;;1.67;;
17173;SDS011;8702;48.130;-1.696;2022-10-16T13:33:46;2.05;;;1.70;;
17173;SDS011;8702;48.130;-1.696;2022-10-16T13:36:18;3.65;;;1.80;;
17173;SDS011;8702;48.130;-1.696;2022-10-16T13:38:50;2.10;;;1.70;;
17173;SDS011;8702;48.130;-1.696;2022-10-16T13:41:27;3.80;;;1.90;;
17173;SDS011;8702;48.130;-1.696;2022-10-16T13:43:54;3.87;;;1.90;;
17173;SDS011;8702;48.130;-1.696;2022-10-16T13:46:23;4.75;;;1.92;;
17173;SDS011;8702;48.130;-1.696;2022-10-16T13:49:02;3.67;;;1.98;;
17173;SDS011;8702;48.130;-1.696;2022-10-16T13:51:31;3.92;;;1.83;;
17173;SDS011;8702;48.130;-1.696;2022-10-16T13:53:59;2.72;;;1.88;;
17173;SDS011;8702;48.130;-1.696;2022-10-16T13:56:27;4.05;;;2.10;;
17173;SDS011;8702;48.130;-1.696;2022-10-16T13:58:58;2.33;;;2.03;;
17173;SDS011;8702;48.130;-1.696;2022-10-16T14:01:26;3.25;;;1.85;;
17173;SDS011;8702;48.130;-1.696;2022-10-16T14:04:02;6.00;;;2.53;;
17173;SDS011;8702;48.130;-1.696;2022-10-16T14:06:31;2.80;;;1.98;;
17173;SDS011;8702;48.130;-1.696;2022-10-16T14:08:59;4.68;;;2.00;;
17173;SDS011;8702;48.130;-1.696;2022-10-16T14:11:31;2.85;;;1.92;;
17173;SDS011;8702;48.130;-1.696;2022-10-16T14:13:59;2.57;;;1.50;;
17173;SDS011;8702;48.130;-1.696;2022-10-16T14:16:28;2.53;;;1.50;;
17173;SDS011;8702;48.130;-1.696;2022-10-16T14:18:58;2.70;;;1.40;;
17173;SDS011;8702;48.130;-1.696;2022-10-16T14:21:29;1.42;;;1.30;;
17173;SDS011;8702;48.130;-1.696;2022-10-16T14:23:57;5.03;;;1.40;;
17173;SDS011;8702;48.130;-1.696;2022-10-16T14:26:25;3.45;;;1.40;;
17173;SDS011;8702;48.130;-1.696;2022-10-16T14:29:04;2.28;;;1.27;;
17173;SDS011;8702;48.130;-1.696;2022-10-16T14:31:38;2.30;;;1.40;;
17173;SDS011;8702;48.130;-1.696;2022-10-16T14:36:53;2.03;;;1.35;;
17173;SDS011;8702;48.130;-1.696;2022-10-16T14:39:21;2.53;;;1.37;;
17173;SDS011;8702;48.130;-1.696;2022-10-16T14:41:51;1.77;;;1.10;;
17173;SDS011;8702;48.130;-1.696;2022-10-16T14:44:18;1.70;;;1.00;;
17173;SDS011;8702;48.130;-1.696;2022-10-16T14:46:51;1.38;;;1.17;;
17173;SDS011;8702;48.130;-1.696;2022-10-16T14:49:19;1.30;;;1.13;;
17173;SDS011;8702;48.130;-1.696;2022-10-16T14:51:48;3.22;;;1.50;;
17173;SDS011;8702;48.130;-1.696;2022-10-16T14:54:17;2.90;;;1.45;;
17173;SDS011;8702;48.130;-1.696;2022-10-16T14:56:46;2.35;;;1.40;;
17173;SDS011;8702;48.130;-1.696;2022-10-16T14:59:16;1.80;;;1.30;;
17173;SDS011;8702;48.130;-1.696;2022-10-16T15:01:45;2.47;;;1.40;;
17173;SDS011;8702;48.130;-1.696;2022-10-16T15:04:12;1.90;;;1.38;;
17173;SDS011;8702;48.130;-1.696;2022-10-16T15:06:40;1.65;;;1.30;;
17173;SDS011;8702;48.130;-1.696;2022-10-16T15:09:07;3.40;;;1.40;;
17173;SDS011;8702;48.130;-1.696;2022-10-16T15:11:36;1.80;;;1.10;;
17173;SDS011;8702;48.130;-1.696;2022-10-16T15:14:03;1.38;;;1.10;;